Time,TemperatureF,DewpointF,PressureIn,WindDirection,WindDirectionDegrees,WindSpeedMPH,WindSpeedGustMPH,Humidity,HourlyPrecipIn,Conditions,Clouds,dailyrainin,SoftwareType,DateUTC
2013-01-19 00:12:00,19.6,18.0,30.46,SSW,194,0.0,0.0,95,0.00,,,0.00,weatherlink.com 1.10,2013-01-19 08:12:00,
2013-01-19 00:27:00,18.5,17.0,30.46,SSW,194,0.0,0.0,95,0.00,,,0.00,weatherlink.com 1.10,2013-01-19 08:27:00,
2013-01-19 00:42:00,18.2,17.0,30.47,SSW,195,0.0,0.0,96,0.00,,,0.00,weatherlink.com 1.10,2013-01-19 08:42:00,
2013-01-19 00:57:00,18.2,17.0,30.46,SSW,195,0.0,0.0,96,0.00,,,0.00,weatherlink.com 1.10,2013-01-19 08:57:00,
2013-01-19 01:12:00,18.1,17.0,30.47,West,276,0.0,1.0,94,0.00,,,0.00,weatherlink.com 1.10,2013-01-19 09:12:00,
2013-01-19 01:27:00,17.1,16.0,30.47,West,276,0.0,0.0,95,0.00,,,0.00,weatherlink.com 1.10,2013-01-19 09:27:00,
2013-01-19 01:42:00,16.6,16.0,30.47,West,276,0.0,0.0,95,0.00,,,0.00,weatherlink.com 1.10,2013-01-19 09:42:00,
2013-01-19 01:57:00,16.7,16.0,30.48,West,276,0.0,0.0,96,0.00,,,0.00,weatherlink.com 1.10,2013-01-19 09:57:00,
2013-01-19 02:12:00,16.2,15.0,30.48,West,275,0.0,0.0,94,0.00,,,0.00,weatherlink.com 1.10,2013-01-19 10:12:00,
2013-01-19 02:27:00,15.8,15.0,30.48,SW,231,0.0,0.0,95,0.00,,,0.00,weatherlink.com 1.10,2013-01-19 10:27:00,
2013-01-19 02:42:00,15.7,14.0,30.48,SW,231,0.0,0.0,94,0.00,,,0.00,weatherlink.com 1.10,2013-01-19 10:42:00,
2013-01-19 02:57:00,16.0,15.0,30.48,SSW,212,0.0,0.0,95,0.00,,,0.00,weatherlink.com 1.10,2013-01-19 10:57:00,
2013-01-19 03:12:00,14.7,13.0,30.48,SW,225,0.0,0.0,94,0.00,,,0.00,weatherlink.com 1.10,2013-01-19 11:12:00,
2013-01-19 04:57:00,14.3,13.0,30.49,SW,229,0.0,0.0,94,0.00,,,0.00,weatherlink.com 1.10,2013-01-19 12:57:00,
2013-01-19 05:12:00,13.8,12.0,30.50,SW,229,0.0,0.0,93,0.00,,,0.00,weatherlink.com 1.10,2013-01-19 13:12:00,
2013-01-19 05:27:00,13.9,13.0,30.49,SE,140,0.0,0.0,94,0.00,,,0.00,weatherlink.com 1.10,2013-01-19 13:27:00,
2013-01-19 05:43:00,12.7,11.0,30.49,SE,140,0.0,0.0,93,0.00,,,0.00,weatherlink.com 1.10,2013-01-19 13:43:00,
2013-01-19 05:57:00,13.4,12.0,30.50,SE,140,0.0,0.0,94,0.00,,,0.00,weatherlink.com 1.10,2013-01-19 13:57:00,
2013-01-19 06:12:00,13.3,12.0,30.50,SW,228,0.0,0.0,93,0.00,,,0.00,weatherlink.com 1.10,2013-01-19 14:12:00,
2013-01-19 06:27:00,13.1,12.0,30.50,SW,228,0.0,0.0,95,0.00,,,0.00,weatherlink.com 1.10,2013-01-19 14:27:00,
2013-01-19 06:42:00,12.5,11.0,30.50,SW,229,0.0,0.0,93,0.00,,,0.00,weatherlink.com 1.10,2013-01-19 14:42:00,
2013-01-19 06:57:00,12.5,11.0,30.51,WSW,250,0.0,0.0,93,0.00,,,0.00,weatherlink.com 1.10,2013-01-19 14:57:00,
2013-01-19 07:27:00,11.9,10.0,30.52,WSW,250,0.0,0.0,93,0.00,,,0.00,weatherlink.com 1.10,2013-01-19 15:27:00,
2013-01-19 07:42:00,12.4,11.0,30.52,WSW,250,0.0,0.0,93,0.00,,,0.00,weatherlink.com 1.10,2013-01-19 15:42:00,
2013-01-19 07:57:00,12.8,11.0,30.52,WSW,249,0.0,0.0,94,0.00,,,0.00,weatherlink.com 1.10,2013-01-19 15:57:00,
2013-01-19 08:12:00,13.1,12.0,30.53,WSW,250,0.0,0.0,94,0.00,,,0.00,weatherlink.com 1.10,2013-01-19 16:12:00,
2013-01-19 08:28:00,13.9,13.0,30.53,WSW,250,0.0,0.0,94,0.00,,,0.00,weatherlink.com 1.10,2013-01-19 16:28:00,
2013-01-19 08:43:00,16.7,16.0,30.54,WSW,250,0.0,0.0,97,0.00,,,0.00,weatherlink.com 1.10,2013-01-19 16:43:00,
2013-01-19 08:58:00,19.2,18.0,30.54,WSW,250,0.0,0.0,95,0.00,,,0.00,weatherlink.com 1.10,2013-01-19 16:58:00,
2013-01-19 09:13:00,19.4,17.0,30.55,WSW,250,0.0,0.0,91,0.00,,,0.00,weatherlink.com 1.10,2013-01-19 17:13:00,
2013-01-19 09:28:00,19.6,18.0,30.55,WSW,250,0.0,0.0,93,0.00,,,0.00,weatherlink.com 1.10,2013-01-19 17:28:00,
2013-01-19 09:43:00,20.7,19.0,30.55,WSW,250,0.0,0.0,93,0.00,,,0.00,weatherlink.com 1.10,2013-01-19 17:43:00,
2013-01-19 09:58:00,23.7,23.0,30.55,WSW,250,0.0,0.0,96,0.00,,,0.00,weatherlink.com 1.10,2013-01-19 17:58:00,
2013-01-19 10:13:00,25.6,24.0,30.55,WSW,250,0.0,0.0,93,0.00,,,0.00,weatherlink.com 1.10,2013-01-19 18:13:00,
2013-01-19 10:43:00,29.0,27.0,30.54,WSW,252,0.0,0.0,93,0.00,,,0.00,weatherlink.com 1.10,2013-01-19 18:43:00,
2013-01-19 10:58:00,32.3,30.0,30.53,WSW,253,0.0,0.0,92,0.00,,,0.00,weatherlink.com 1.10,2013-01-19 18:58:00,
2013-01-19 11:13:00,31.0,27.0,30.52,East,97,0.0,1.0,85,0.00,,,0.00,weatherlink.com 1.10,2013-01-19 19:13:00,
2013-01-19 11:28:00,32.4,30.0,30.51,East,98,0.0,0.0,89,0.01,,,0.01,weatherlink.com 1.10,2013-01-19 19:28:00,
2013-01-19 11:43:00,34.9,31.0,30.51,SSE,165,0.0,0.0,85,0.01,,,0.01,weatherlink.com 1.10,2013-01-19 19:43:00,
2013-01-19 11:58:00,35.3,31.0,30.50,SE,131,0.0,0.0,85,0.02,,,0.02,weatherlink.com 1.10,2013-01-19 19:58:00,
2013-01-19 12:14:00,35.5,31.0,30.50,West,281,0.0,0.0,85,0.03,,,0.03,weatherlink.com 1.10,2013-01-19 20:14:00,
2013-01-19 12:29:00,38.3,34.0,30.49,West,276,0.0,1.0,83,0.03,,,0.04,weatherlink.com 1.10,2013-01-19 20:29:00,
2013-01-19 13:14:00,38.4,31.0,30.47,SSW,207,0.0,2.0,75,0.05,,,0.08,weatherlink.com 1.10,2013-01-19 21:14:00,
2013-01-19 13:29:00,38.7,32.0,30.47,SSW,203,0.0,1.0,78,0.05,,,0.09,weatherlink.com 1.10,2013-01-19 21:29:00,
2013-01-19 13:44:00,38.1,33.0,30.46,SW,217,0.0,1.0,82,0.05,,,0.10,weatherlink.com 1.10,2013-01-19 21:44:00,
2013-01-19 13:59:00,38.0,33.0,30.46,SSW,209,0.0,1.0,83,0.04,,,0.10,weatherlink.com 1.10,2013-01-19 21:59:00,
2013-01-19 14:14:00,37.0,33.0,30.46,SW,214,0.0,1.0,86,0.03,,,0.11,weatherlink.com 1.10,2013-01-19 22:14:00,
2013-01-19 14:29:00,36.8,33.0,30.46,SW,214,0.0,1.0,86,0.03,,,0.12,weatherlink.com 1.10,2013-01-19 22:29:00,
2013-01-19 14:44:00,35.8,33.0,30.46,SW,215,0.0,1.0,88,0.02,,,0.12,weatherlink.com 1.10,2013-01-19 22:44:00,
2013-01-19 14:59:00,35.2,32.0,30.46,SW,231,1.0,1.0,89,0.02,,,0.12,weatherlink.com 1.10,2013-01-19 22:59:00,
2013-01-19 15:14:00,33.9,31.0,30.47,SW,226,0.0,1.0,90,0.02,,,0.13,weatherlink.com 1.10,2013-01-19 23:14:00,
2013-01-19 16:00:00,30.9,30.0,30.47,SW,226,0.0,0.0,97,0.01,,,0.13,weatherlink.com 1.10,2013-01-20 00:00:00,
2013-01-19 16:15:00,30.2,29.0,30.48,SW,229,0.0,1.0,96,0.00,,,0.13,weatherlink.com 1.10,2013-01-20 00:15:00,
2013-01-19 16:30:00,-90.0,-90.0,30.48,SW,229,0.0,0.0,100,0.00,,,0.13,weatherlink.com 1.10,2013-01-20 00:30:00,
2013-01-19 16:45:00,-90.0,-90.0,30.49,SW,229,0.0,0.0,100,0.00,,,0.13,weatherlink.com 1.10,2013-01-20 00:45:00,
2013-01-19 17:00:00,-90.0,-90.0,30.50,SW,229,0.0,0.0,100,0.00,,,0.13,weatherlink.com 1.10,2013-01-20 01:00:00,
2013-01-19 17:15:00,-90.0,-90.0,30.52,SW,214,0.0,0.0,100,0.00,,,0.13,weatherlink.com 1.10,2013-01-20 01:15:00,
2013-01-19 17:30:00,-90.0,-90.0,30.53,SSW,195,0.0,1.0,100,0.00,,,0.13,weatherlink.com 1.10,2013-01-20 01:30:00,
2013-01-19 17:45:00,-90.0,-90.0,30.53,SE,127,0.0,0.0,100,0.00,,,0.13,weatherlink.com 1.10,2013-01-20 01:45:00,
2013-01-19 18:00:00,-90.0,-90.0,30.54,SE,127,0.0,0.0,100,0.00,,,0.13,weatherlink.com 1.10,2013-01-20 02:00:00,
2013-01-19 18:15:00,25.5,26.0,30.55,SE,127,0.0,0.0,100,0.00,,,0.13,weatherlink.com 1.10,2013-01-20 02:15:00,
2013-01-19 18:30:00,25.1,24.0,30.56,SE,127,0.0,0.0,97,0.00,,,0.13,weatherlink.com 1.10,2013-01-20 02:30:00,
2013-01-19 19:00:00,23.9,23.0,30.56,SSW,193,0.0,0.0,97,0.00,,,0.13,weatherlink.com 1.10,2013-01-20 03:00:00,
2013-01-19 19:15:00,23.8,23.0,30.56,SW,227,0.0,0.0,98,0.00,,,0.13,weatherlink.com 1.10,2013-01-20 03:15:00,
2013-01-19 19:30:00,23.4,23.0,30.57,SW,226,0.0,0.0,96,0.00,,,0.13,weatherlink.com 1.10,2013-01-20 03:30:00,
2013-01-19 19:45:00,23.2,23.0,30.57,SW,226,0.0,0.0,98,0.00,,,0.13,weatherlink.com 1.10,2013-01-20 03:45:00,
2013-01-19 20:00:00,22.4,22.0,30.57,SW,226,0.0,0.0,97,0.00,,,0.13,weatherlink.com 1.10,2013-01-20 04:00:00,
2013-01-19 20:16:00,21.9,21.0,30.57,SW,227,0.0,0.0,96,0.00,,,0.13,weatherlink.com 1.10,2013-01-20 04:16:00,
2013-01-19 20:31:00,21.9,21.0,30.58,SW,225,0.0,0.0,97,0.00,,,0.13,weatherlink.com 1.10,2013-01-20 04:31:00,
2013-01-19 21:01:00,20.9,20.0,30.58,North,359,0.0,0.0,96,0.00,,,0.13,weatherlink.com 1.10,2013-01-20 05:01:00,
2013-01-19 21:16:00,21.2,20.0,30.58,SSW,207,0.0,0.0,96,0.00,,,0.13,weatherlink.com 1.10,2013-01-20 05:16:00,
2013-01-19 21:31:00,20.6,20.0,30.59,SSW,207,0.0,0.0,96,0.00,,,0.13,weatherlink.com 1.10,2013-01-20 05:31:00,
2013-01-19 22:01:00,19.7,19.0,30.60,SSW,207,0.0,0.0,95,0.00,,,0.13,weatherlink.com 1.10,2013-01-20 06:01:00,
2013-01-19 22:16:00,19.7,19.0,30.60,SSW,207,0.0,0.0,95,0.00,,,0.13,weatherlink.com 1.10,2013-01-20 06:16:00,
2013-01-19 22:31:00,19.9,19.0,30.61,SSW,207,0.0,0.0,96,0.00,,,0.13,weatherlink.com 1.10,2013-01-20 06:31:00,
2013-01-19 23:01:00,19.3,18.0,30.61,WSW,257,0.0,0.0,95,0.00,,,0.13,weatherlink.com 1.10,2013-01-20 07:01:00,
2013-01-19 23:16:00,19.5,18.0,30.61,SW,219,0.0,0.0,95,0.00,,,0.13,weatherlink.com 1.10,2013-01-20 07:16:00,
2013-01-19 23:31:00,19.0,18.0,30.61,SW,219,0.0,0.0,96,0.00,,,0.13,weatherlink.com 1.10,2013-01-20 07:31:00,
2013-01-19 23:47:00,20.3,20.0,30.61,WSW,249,0.0,1.0,98,0.00,,,0.13,weatherlink.com 1.10,2013-01-20 07:47:00,